createdAt,value
2023-05-01T00:03:47.799Z,2.65
2023-05-01T00:07:49.621Z,8.40
2023-05-01T00:11:51.065Z,1.55
2023-05-01T00:15:53.938Z,1.27
2023-05-01T00:19:55.650Z,1.90
2023-05-01T00:23:57.353Z,1.63
2023-05-01T00:27:59.980Z,1.90
2023-05-01T00:32:01.456Z,0.80
2023-05-01T00:36:03.348Z,2.53
2023-05-01T00:40:05.851Z,1.35
2023-05-01T00:44:07.406Z,3.15
2023-05-01T00:48:09.488Z,1.27
2023-05-01T00:52:11.658Z,1.38
2023-05-01T00:56:13.759Z,2.50
2023-05-01T01:00:16.781Z,1.80
2023-05-01T01:04:18.255Z,1.55
2023-05-01T01:08:34.367Z,2.70
2023-05-01T01:13:15.223Z,1.73
2023-05-01T01:17:32.090Z,2.35
2023-05-01T01:21:43.364Z,3.33
2023-05-01T01:26:12.381Z,2.63
2023-05-01T01:30:34.108Z,3.28
2023-05-01T01:34:44.120Z,5.20
2023-05-01T01:43:07.513Z,5.80
2023-05-01T01:47:13.888Z,8.25
2023-05-01T01:51:19.863Z,4.68
2023-05-01T01:55:25.334Z,5.10
2023-05-01T01:59:30.704Z,9.30
2023-05-01T02:03:33.622Z,4.35
2023-05-01T02:07:40.290Z,3.47
2023-05-01T02:11:42.753Z,9.30
2023-05-01T02:15:45.865Z,17.58
2023-05-01T02:19:48.304Z,15.10
2023-05-01T02:23:49.779Z,15.32
2023-05-01T02:27:57.544Z,19.60
2023-05-01T02:32:00.051Z,20.70
2023-05-01T02:36:01.674Z,14.52
2023-05-01T02:40:03.966Z,17.75
2023-05-01T02:44:08.527Z,15.50
2023-05-01T02:48:13.248Z,11.52
2023-05-01T02:52:19.626Z,17.55
2023-05-01T02:56:21.389Z,10.98
2023-05-01T03:00:23.333Z,20.40
2023-05-01T03:04:24.926Z,11.48
2023-05-01T03:08:26.431Z,12.85
2023-05-01T03:12:27.870Z,15.10
2023-05-01T03:16:29.351Z,12.38
2023-05-01T03:20:30.801Z,14.10
2023-05-01T03:24:32.546Z,10.25
2023-05-01T03:28:33.983Z,15.60
2023-05-01T03:32:37.072Z,12.65
2023-05-01T03:36:38.542Z,12.52
2023-05-01T03:40:40.761Z,12.02
2023-05-01T03:44:42.330Z,10.00
2023-05-01T03:48:43.771Z,16.10
2023-05-01T03:52:45.234Z,8.82
2023-05-01T03:56:47.193Z,11.65
2023-05-01T04:00:50.899Z,12.63
2023-05-01T04:04:56.348Z,13.90
2023-05-01T04:08:57.828Z,11.32
2023-05-01T04:12:59.246Z,11.48
2023-05-01T04:17:00.870Z,9.85
2023-05-01T04:21:02.585Z,10.20
2023-05-01T04:25:04.938Z,10.02
2023-05-01T04:29:06.382Z,8.38
2023-05-01T04:33:11.382Z,12.10
2023-05-01T04:37:16.171Z,6.35
2023-05-01T04:41:18.589Z,7.80
2023-05-01T04:45:20.370Z,8.88
2023-05-01T04:49:22.299Z,8.95
2023-05-01T04:53:23.737Z,12.73
2023-05-01T04:57:25.526Z,6.90
2023-05-01T05:01:27.728Z,7.63
2023-05-01T05:05:29.216Z,10.77
2023-05-01T05:09:30.721Z,8.75
2023-05-01T05:13:32.110Z,9.20
2023-05-01T05:17:33.541Z,9.20
2023-05-01T05:21:35.566Z,8.10
2023-05-01T05:25:37.925Z,10.32
2023-05-01T05:29:40.213Z,6.93
2023-05-01T05:33:43.316Z,9.05
2023-05-01T05:37:46.032Z,8.23
2023-05-01T05:41:49.099Z,7.88
2023-05-01T05:45:50.920Z,7.38
2023-05-01T05:49:52.330Z,8.10
2023-05-01T05:53:53.871Z,9.40
2023-05-01T05:57:55.320Z,6.88
2023-05-01T06:01:56.771Z,9.38
2023-05-01T06:05:58.877Z,8.75
2023-05-01T06:10:04.253Z,6.70
2023-05-01T06:14:05.945Z,7.50
2023-05-01T06:18:07.871Z,10.73
2023-05-01T06:22:09.640Z,5.88
2023-05-01T06:26:11.135Z,5.88
2023-05-01T06:30:12.878Z,10.63
2023-05-01T06:34:14.347Z,5.22
2023-05-01T06:38:16.280Z,7.53
2023-05-01T06:42:17.739Z,5.50
2023-05-01T06:46:19.278Z,10.57
2023-05-01T06:50:20.925Z,8.23
2023-05-01T06:54:22.357Z,6.13
2023-05-01T06:58:24.544Z,6.72
2023-05-01T07:02:26.638Z,7.57
2023-05-01T07:06:28.698Z,7.47
2023-05-01T07:10:30.733Z,7.80
2023-05-01T07:14:32.432Z,4.95
2023-05-01T07:18:34.731Z,11.43
2023-05-01T07:22:36.198Z,4.57
2023-05-01T07:26:38.593Z,5.25
2023-05-01T07:30:40.150Z,9.68
2023-05-01T07:34:41.601Z,6.78
2023-05-01T07:38:43.069Z,7.13
2023-05-01T07:42:44.707Z,7.68
2023-05-01T07:46:46.373Z,10.15
2023-05-01T07:50:47.769Z,6.70
2023-05-01T07:54:50.914Z,11.10
2023-05-01T07:58:52.378Z,4.93
2023-05-01T08:02:54.611Z,8.50
2023-05-01T08:06:56.195Z,7.38
2023-05-01T08:10:57.732Z,5.68
2023-05-01T08:14:59.359Z,11.77
2023-05-01T08:19:00.911Z,7.05
2023-05-01T08:23:02.846Z,7.38
2023-05-01T08:27:04.607Z,7.03
2023-05-01T08:31:06.075Z,6.35
2023-05-01T08:35:07.989Z,5.70
2023-05-01T08:39:09.461Z,6.90
2023-05-01T08:43:13.024Z,7.15
2023-05-01T08:47:17.991Z,7.13
2023-05-01T08:51:23.209Z,6.55
2023-05-01T08:55:26.234Z,6.45
2023-05-01T08:59:30.078Z,4.88
2023-05-01T09:03:33.121Z,6.97
2023-05-01T09:07:35.220Z,5.00
2023-05-01T09:11:36.737Z,9.90
2023-05-01T09:15:38.371Z,6.13
2023-05-01T09:19:40.964Z,6.90
2023-05-01T09:23:42.612Z,5.30
2023-05-01T09:27:44.583Z,5.57
2023-05-01T09:31:46.015Z,6.53
2023-05-01T09:35:55.637Z,8.80
2023-05-01T09:40:08.665Z,5.78
2023-05-01T09:44:19.162Z,8.27
2023-05-01T09:48:20.691Z,7.10
2023-05-01T09:52:26.878Z,5.35
2023-05-01T09:56:30.084Z,8.52
2023-05-01T10:00:31.991Z,7.40
2023-05-01T10:04:34.800Z,7.75
2023-05-01T10:08:50.121Z,6.40
2023-05-01T10:12:51.830Z,11.05
2023-05-01T10:16:53.734Z,5.82
2023-05-01T10:20:55.238Z,6.32
2023-05-01T10:24:59.249Z,8.32
2023-05-01T10:29:02.017Z,5.93
2023-05-01T10:33:05.276Z,6.97
2023-05-01T10:37:32.390Z,7.55
2023-05-01T10:41:58.500Z,4.95
2023-05-01T10:46:21.221Z,7.53
2023-05-01T10:50:22.831Z,6.60
2023-05-01T10:54:27.251Z,8.60
2023-05-01T10:58:37.472Z,5.50
2023-05-01T11:02:39.314Z,7.30
2023-05-01T11:07:08.233Z,3.55
2023-05-01T11:11:22.763Z,7.80
2023-05-01T11:15:32.272Z,5.43
2023-05-01T11:19:36.880Z,5.82
2023-05-01T11:23:38.569Z,7.47
2023-05-01T11:27:40.319Z,5.90
2023-05-01T11:31:41.940Z,6.60
2023-05-01T11:35:44.260Z,5.30
2023-05-01T11:39:53.248Z,6.05
2023-05-01T11:43:57.480Z,6.15
2023-05-01T11:48:02.872Z,8.50
2023-05-01T11:52:05.748Z,7.97
2023-05-01T11:56:28.092Z,7.95
2023-05-01T12:00:36.634Z,5.30
2023-05-01T12:04:38.394Z,7.50
2023-05-01T12:08:45.198Z,6.70
2023-05-01T12:12:46.760Z,5.13
2023-05-01T12:16:49.202Z,9.18
2023-05-01T12:20:52.739Z,5.80
2023-05-01T12:24:54.614Z,6.65
2023-05-01T12:29:01.523Z,8.00
2023-05-01T12:33:30.102Z,12.95
2023-05-01T12:37:35.036Z,5.45
2023-05-01T12:41:37.444Z,8.85
2023-05-01T12:45:40.494Z,6.45
2023-05-01T12:49:41.980Z,5.75
2023-05-01T12:53:44.309Z,8.23
2023-05-01T12:57:54.256Z,5.93
2023-05-01T13:02:04.817Z,7.80
2023-05-01T13:06:06.755Z,6.45
2023-05-01T13:10:08.586Z,8.55
2023-05-01T13:14:10.690Z,7.07
2023-05-01T13:18:12.785Z,4.50
2023-05-01T13:22:14.576Z,6.13
2023-05-01T13:26:16.922Z,6.43
2023-05-01T13:30:21.977Z,6.28
2023-05-01T13:34:31.850Z,7.75
2023-05-01T13:38:42.439Z,6.80
2023-05-01T13:42:43.940Z,6.07
2023-05-01T13:46:46.435Z,5.60
2023-05-01T13:50:48.212Z,7.57
2023-05-01T13:54:52.730Z,7.95
2023-05-01T13:58:54.224Z,6.00
2023-05-01T14:02:56.524Z,7.32
2023-05-01T14:06:59.959Z,6.57
2023-05-01T14:11:05.654Z,8.50
2023-05-01T14:15:12.072Z,10.15
2023-05-01T14:19:17.386Z,9.45
2023-05-01T14:23:20.647Z,5.28
2023-05-01T14:27:22.271Z,8.73
2023-05-01T14:31:28.476Z,6.97
2023-05-01T14:35:30.303Z,4.95
2023-05-01T14:39:32.898Z,8.68
2023-05-01T14:43:34.987Z,7.05
2023-05-01T14:47:39.216Z,5.70
2023-05-01T14:51:41.105Z,5.88
2023-05-01T14:55:43.570Z,5.55
2023-05-01T14:59:45.014Z,4.90
2023-05-01T15:03:46.752Z,7.55
2023-05-01T15:07:48.623Z,8.52
2023-05-01T15:11:50.078Z,9.18
2023-05-01T15:15:52.633Z,4.93
2023-05-01T15:19:54.225Z,6.68
2023-05-01T15:23:56.767Z,5.97
2023-05-01T15:27:58.195Z,7.30
2023-05-01T15:32:11.209Z,9.02
2023-05-01T15:36:13.688Z,5.93
2023-05-01T15:40:15.184Z,7.63
2023-05-01T15:44:16.861Z,7.50
2023-05-01T15:48:18.510Z,9.88
2023-05-01T15:52:20.036Z,6.88
2023-05-01T15:56:21.869Z,7.45
2023-05-01T16:00:23.367Z,5.82
2023-05-01T16:04:24.783Z,6.10
2023-05-01T16:08:26.293Z,7.28
2023-05-01T16:12:28.342Z,9.55
2023-05-01T16:16:30.289Z,7.55
2023-05-01T16:20:41.733Z,6.32
2023-05-01T16:24:43.371Z,9.50
2023-05-01T16:28:44.788Z,6.93
2023-05-01T16:32:46.297Z,6.40
2023-05-01T16:36:47.761Z,8.75
2023-05-01T16:40:49.313Z,7.60
2023-05-01T16:44:50.944Z,6.05
2023-05-01T16:48:52.581Z,8.02
2023-05-01T16:52:55.079Z,8.65
2023-05-01T16:56:56.527Z,6.82
2023-05-01T17:00:58.017Z,6.65
2023-05-01T17:04:59.506Z,6.13
2023-05-01T17:09:00.970Z,7.63
2023-05-01T17:13:02.423Z,6.75
2023-05-01T17:21:06.670Z,6.60
2023-05-01T17:25:08.525Z,9.20
2023-05-01T17:29:09.957Z,8.32
2023-05-01T17:33:11.427Z,7.10
2023-05-01T17:37:13.129Z,5.82
2023-05-01T17:41:15.396Z,6.97
2023-05-01T17:45:19.248Z,9.80
2023-05-01T17:49:20.698Z,7.95
2023-05-01T17:53:23.569Z,11.20
2023-05-01T17:57:25.678Z,10.70
2023-05-01T18:01:28.199Z,15.02
2023-05-01T18:05:29.879Z,23.27
2023-05-01T18:09:31.406Z,6.05
2023-05-01T18:13:37.999Z,11.60
2023-05-01T18:17:39.469Z,6.97
2023-05-01T18:21:40.981Z,6.55
2023-05-01T18:25:42.442Z,7.15
2023-05-01T18:29:44.223Z,9.93
2023-05-01T18:33:45.647Z,10.43
2023-05-01T18:37:47.191Z,6.88
2023-05-01T18:41:49.552Z,6.55
2023-05-01T18:45:51.173Z,6.95
2023-05-01T18:49:52.749Z,5.35
2023-05-01T18:53:54.604Z,6.22
2023-05-01T18:57:56.503Z,7.40
2023-05-01T19:01:58.661Z,11.65
2023-05-01T19:06:00.434Z,9.80
2023-05-01T19:10:02.356Z,9.00
2023-05-01T19:14:04.013Z,12.73
2023-05-01T19:18:05.496Z,8.77
2023-05-01T19:22:07.399Z,10.55
2023-05-01T19:26:09.308Z,8.60
2023-05-01T19:30:11.130Z,9.02
2023-05-01T19:34:12.659Z,12.65
2023-05-01T19:38:14.113Z,9.50
2023-05-01T19:42:15.823Z,13.20
2023-05-01T19:46:17.319Z,9.07
2023-05-01T19:50:19.559Z,15.90
2023-05-01T19:54:22.335Z,11.48
2023-05-01T19:58:26.650Z,15.73
2023-05-01T20:02:28.476Z,19.77
2023-05-01T20:06:30.079Z,25.77
2023-05-01T20:10:31.644Z,30.08
2023-05-01T20:14:34.248Z,25.25
2023-05-01T20:18:35.790Z,19.90
2023-05-01T20:22:37.374Z,23.73
2023-05-01T20:26:38.836Z,16.58
2023-05-01T20:30:41.367Z,18.20
2023-05-01T20:34:43.823Z,23.33
2023-05-01T20:38:46.363Z,14.88
2023-05-01T20:42:47.837Z,17.65
2023-05-01T20:46:49.337Z,15.70
2023-05-01T20:50:50.842Z,15.32
2023-05-01T20:54:52.246Z,14.23
2023-05-01T20:58:54.358Z,20.65
2023-05-01T21:02:58.086Z,23.33
2023-05-01T21:06:59.689Z,14.60
2023-05-01T21:11:02.121Z,14.32
2023-05-01T21:15:04.954Z,14.50
2023-05-01T21:19:06.920Z,16.85
2023-05-01T21:23:08.496Z,14.73
2023-05-01T21:27:10.042Z,17.35
2023-05-01T21:31:12.903Z,13.13
2023-05-01T21:35:17.364Z,18.73
2023-05-01T21:39:21.771Z,14.68
2023-05-01T21:43:23.320Z,12.95
2023-05-01T21:47:25.783Z,14.90
2023-05-01T21:51:28.392Z,15.90
2023-05-01T21:55:30.007Z,15.02
2023-05-01T21:59:36.065Z,17.83
2023-05-01T22:03:41.462Z,22.02
2023-05-01T22:07:45.114Z,14.52
2023-05-01T22:11:46.637Z,18.77
2023-05-01T22:15:48.745Z,17.08
2023-05-01T22:19:51.519Z,14.20
2023-05-01T22:23:53.079Z,14.52
2023-05-01T22:27:54.513Z,18.20
2023-05-01T22:31:56.746Z,18.08
2023-05-01T22:35:58.354Z,16.67
2023-05-01T22:40:00.007Z,16.38
2023-05-01T22:44:01.666Z,21.92
2023-05-01T22:48:03.288Z,16.17
2023-05-01T22:52:05.000Z,15.70
2023-05-01T22:56:06.726Z,17.20
2023-05-01T23:00:09.647Z,17.30
2023-05-01T23:04:12.034Z,10.88
2023-05-01T23:08:13.593Z,8.93
2023-05-01T23:12:19.596Z,11.95
2023-05-01T23:16:21.078Z,12.15
2023-05-01T23:20:25.994Z,10.07
2023-05-01T23:24:41.304Z,10.10
2023-05-01T23:28:43.087Z,10.70
2023-05-01T23:32:44.605Z,7.32
2023-05-01T23:36:47.133Z,7.18
2023-05-01T23:40:49.640Z,7.82
2023-05-01T23:44:51.181Z,7.28
2023-05-01T23:48:52.616Z,8.90
2023-05-01T23:52:54.786Z,7.00
2023-05-01T23:56:56.182Z,7.68
